Time;durP1;ratioP1;P1;durP2;ratioP2;P2;SDS_P1;SDS_P2;PMS_P1;PMS_P2;Temp;Humidity;BMP_temperature;BMP_pressure;BME280_temperature;BME280_humidity;BME280_pressure;Samples;Min_cycle;Max_cycle;Signal;HPM_P1;HPM_P2
2020/12/10 00:00:28;;;;;;;25.35;3.22;;;8.90;99.90;;;;;;5068046;28;20032;-45
2020/12/10 00:02:54;;;;;;;20.23;3.67;;;8.80;99.90;;;;;;5068063;28;20040;-45
2020/12/10 00:05:20;;;;;;;34.15;4.18;;;8.80;99.90;;;;;;5072880;28;20104;-46
2020/12/10 00:07:45;;;;;;;18.33;3.20;;;8.80;99.90;;;;;;5082189;28;20601;-45
2020/12/10 00:10:11;;;;;;;29.33;4.35;;;8.90;99.90;;;;;;5068215;28;20047;-44
2020/12/10 00:12:44;;;;;;;25.65;3.53;;;8.80;99.90;;;;;;5070535;28;20032;-46
2020/12/10 00:15:10;;;;;;;23.00;4.10;;;8.80;99.90;;;;;;5068021;28;20028;-47
2020/12/10 00:17:36;;;;;;;22.52;4.05;;;8.90;99.90;;;;;;5067976;28;20033;-46
2020/12/10 00:20:05;;;;;;;37.60;4.57;;;8.70;99.90;;;;;;5068237;28;20036;-45
2020/12/10 00:22:33;;;;;;;20.50;3.88;;;8.70;99.90;;;;;;5068036;28;20048;-45
2020/12/10 00:24:59;;;;;;;25.02;3.72;;;8.70;99.90;;;;;;5068019;28;20071;-45
2020/12/10 00:27:24;;;;;;;18.85;3.63;;;8.60;99.90;;;;;;5067869;28;20084;-47
2020/12/10 00:29:51;;;;;;;28.77;3.50;;;8.60;99.90;;;;;;5068509;28;20119;-47
2020/12/10 00:32:17;;;;;;;25.98;3.90;;;8.70;99.90;;;;;;5068183;28;20052;-47
2020/12/10 00:34:43;;;;;;;31.05;3.97;;;8.60;99.90;;;;;;5050250;28;20032;-47
2020/12/10 00:37:10;;;;;;;28.20;4.63;;;8.60;99.90;;;;;;5068463;28;20032;-48
2020/12/10 00:39:36;;;;;;;35.75;3.78;;;8.60;99.90;;;;;;5067945;28;20041;-47
2020/12/10 00:42:03;;;;;;;35.80;4.68;;;8.60;99.90;;;;;;5068036;28;20056;-45
2020/12/10 00:44:28;;;;;;;28.77;6.88;;;8.60;99.90;;;;;;5067952;28;20025;-46
2020/12/10 00:46:54;;;;;;;27.60;4.40;;;8.60;99.90;;;;;;5068102;28;20727;-46
2020/12/10 00:49:21;;;;;;;29.98;4.20;;;8.50;99.90;;;;;;5067716;28;20063;-44
2020/12/10 00:51:48;;;;;;;31.23;4.60;;;8.40;99.90;;;;;;5068235;28;20389;-46
2020/12/10 00:54:14;;;;;;;31.55;6.22;;;8.30;99.90;;;;;;5068233;28;20025;-47
2020/12/10 00:56:40;;;;;;;23.35;3.70;;;8.40;99.90;;;;;;5068132;28;20467;-47
2020/12/10 00:59:05;;;;;;;25.33;4.72;;;8.40;99.90;;;;;;5035548;28;20123;-44
2020/12/10 01:01:31;;;;;;;34.90;4.80;;;8.40;99.90;;;;;;5078371;28;20040;-47
2020/12/10 01:03:56;;;;;;;23.95;4.22;;;8.30;99.90;;;;;;5068158;28;20124;-46
2020/12/10 01:06:22;;;;;;;16.48;3.53;;;8.30;99.90;;;;;;5068315;28;20044;-47
2020/12/10 01:08:48;;;;;;;20.15;4.07;;;8.30;99.90;;;;;;5071237;28;20086;-47
2020/12/10 01:11:13;;;;;;;28.80;4.53;;;8.30;99.90;;;;;;5079839;28;20100;-48
2020/12/10 01:13:39;;;;;;;23.65;4.55;;;8.30;99.90;;;;;;5068709;28;20028;-47
2020/12/10 01:16:05;;;;;;;31.23;5.05;;;8.30;99.90;;;;;;5068128;28;20032;-47
2020/12/10 01:18:30;;;;;;;24.35;6.10;;;8.30;99.90;;;;;;5070659;28;20123;-48
2020/12/10 01:20:56;;;;;;;31.45;5.50;;;8.30;99.90;;;;;;5071225;28;20445;-46
2020/12/10 01:23:22;;;;;;;28.88;4.32;;;8.20;99.90;;;;;;5074142;28;20037;-48
2020/12/10 01:25:48;;;;;;;33.47;5.20;;;8.30;99.90;;;;;;5071816;28;20068;-48
2020/12/10 01:28:13;;;;;;;31.80;7.18;;;8.20;99.90;;;;;;5053915;28;20127;-47
2020/12/10 01:30:39;;;;;;;30.70;6.57;;;8.20;99.90;;;;;;5054145;28;20087;-47
2020/12/10 01:33:04;;;;;;;27.70;6.18;;;8.20;99.90;;;;;;5071292;28;20725;-47
2020/12/10 01:35:30;;;;;;;25.50;6.50;;;8.20;99.90;;;;;;5074323;28;20032;-47
2020/12/10 01:37:56;;;;;;;38.15;7.28;;;8.30;99.90;;;;;;5071445;28;20028;-47
2020/12/10 01:40:21;;;;;;;24.38;4.80;;;8.20;99.90;;;;;;5071701;28;20094;-47
2020/12/10 01:42:47;;;;;;;33.63;6.75;;;8.30;99.90;;;;;;5071687;28;20024;-47
2020/12/10 01:45:12;;;;;;;32.08;5.68;;;8.20;99.90;;;;;;5070719;28;20036;-46
2020/12/10 01:47:39;;;;;;;37.65;7.05;;;8.30;99.90;;;;;;5070974;28;20040;-47
2020/12/10 01:50:05;;;;;;;30.75;6.80;;;8.30;99.90;;;;;;5077060;28;20047;-46
2020/12/10 01:52:30;;;;;;;46.42;7.22;;;8.20;99.90;;;;;;5075962;28;20109;-46
2020/12/10 01:54:56;;;;;;;35.15;7.88;;;8.20;99.90;;;;;;5070747;28;20037;-48
2020/12/10 01:57:22;;;;;;;33.65;6.93;;;8.20;99.90;;;;;;5070370;28;20050;-46
2020/12/10 01:59:49;;;;;;;38.80;8.18;;;8.10;99.90;;;;;;5070243;28;20109;-46
2020/12/10 02:02:15;;;;;;;33.17;8.02;;;8.00;99.90;;;;;;5070417;28;20036;-47
2020/12/10 02:04:41;;;;;;;30.88;8.10;;;8.00;99.90;;;;;;5070286;28;20032;-46
2020/12/10 02:07:07;;;;;;;42.45;7.70;;;8.00;99.90;;;;;;5069742;28;20123;-50
2020/12/10 02:09:33;;;;;;;27.80;8.38;;;7.90;99.90;;;;;;5074790;28;20036;-46
2020/12/10 02:11:59;;;;;;;39.25;8.50;;;7.80;99.90;;;;;;5079844;28;20044;-46
2020/12/10 02:14:34;;;;;;;35.85;9.38;;;7.80;99.90;;;;;;5069397;28;20086;-46
2020/12/10 02:17:02;;;;;;;25.58;8.35;;;7.80;99.90;;;;;;5069357;28;20086;-46
2020/12/10 02:19:28;;;;;;;37.58;8.50;;;7.70;99.90;;;;;;5069569;28;20040;-46
2020/12/10 02:21:53;;;;;;;29.85;8.55;;;7.70;99.90;;;;;;5068903;28;20155;-45
2020/12/10 02:24:19;;;;;;;25.85;8.25;;;7.60;99.90;;;;;;5069065;28;20016;-46
2020/12/10 02:26:45;;;;;;;32.42;7.85;;;7.60;99.90;;;;;;5069130;28;20036;-46
2020/12/10 02:29:11;;;;;;;35.83;9.10;;;7.60;99.90;;;;;;5068209;28;20501;-46
2020/12/10 02:31:37;;;;;;;26.60;9.30;;;7.50;99.90;;;;;;5067470;28;20027;-47
2020/12/10 02:34:07;;;;;;;27.77;8.38;;;7.60;99.90;;;;;;5076665;28;20365;-46
2020/12/10 02:36:35;;;;;;;33.97;9.15;;;7.50;99.90;;;;;;5072842;28;20036;-46
2020/12/10 02:39:03;;;;;;;40.10;9.55;;;7.60;99.90;;;;;;5069222;28;20024;-46
2020/12/10 02:41:29;;;;;;;29.75;9.57;;;7.60;99.90;;;;;;5076587;28;20029;-47
2020/12/10 02:43:54;;;;;;;36.10;10.15;;;7.60;99.90;;;;;;5069012;28;20044;-46
2020/12/10 02:46:20;;;;;;;39.30;9.52;;;7.60;99.90;;;;;;5078644;28;20044;-46
2020/12/10 02:48:46;;;;;;;35.72;10.27;;;7.60;99.90;;;;;;5082735;28;20386;-47
2020/12/10 02:51:12;;;;;;;30.17;9.20;;;7.60;99.90;;;;;;5070315;28;20040;-46
2020/12/10 02:53:39;;;;;;;26.20;8.65;;;7.50;99.90;;;;;;5070606;28;20088;-47
2020/12/10 02:56:09;;;;;;;33.10;10.23;;;7.50;99.90;;;;;;5070076;28;20040;-46
2020/12/10 02:58:36;;;;;;;33.85;9.88;;;7.50;99.90;;;;;;5070507;28;20144;-46
2020/12/10 03:01:02;;;;;;;28.15;9.77;;;7.50;99.90;;;;;;5070200;28;20028;-47
2020/12/10 03:03:27;;;;;;;37.30;10.35;;;7.50;99.90;;;;;;5069765;28;20056;-46
2020/12/10 03:05:53;;;;;;;35.03;9.63;;;7.50;99.90;;;;;;5070132;28;20478;-46
2020/12/10 03:08:19;;;;;;;29.55;9.07;;;7.50;99.90;;;;;;5069325;28;20102;-46
2020/12/10 03:10:44;;;;;;;38.90;11.13;;;7.40;99.90;;;;;;5069221;28;20470;-46
2020/12/10 03:13:10;;;;;;;30.95;9.73;;;7.40;99.90;;;;;;5068724;28;20744;-47
2020/12/10 03:15:36;;;;;;;40.88;9.57;;;7.40;99.90;;;;;;5077637;28;20059;-47
2020/12/10 03:18:01;;;;;;;44.13;10.20;;;7.50;99.90;;;;;;5082989;28;20064;-46
2020/12/10 03:20:27;;;;;;;36.00;8.88;;;7.40;99.90;;;;;;5070698;28;20481;-48
2020/12/10 03:22:53;;;;;;;37.25;8.88;;;7.50;99.90;;;;;;5069600;28;20105;-46
2020/12/10 03:25:19;;;;;;;28.80;10.15;;;7.50;99.90;;;;;;5069621;28;20086;-46
2020/12/10 03:27:44;;;;;;;45.97;10.60;;;7.50;99.90;;;;;;5069404;28;20048;-48
2020/12/10 03:30:12;;;;;;;38.85;10.70;;;7.50;99.90;;;;;;5051803;28;20413;-47
2020/12/10 03:32:37;;;;;;;34.67;9.50;;;7.50;99.90;;;;;;5069161;28;20039;-46
2020/12/10 03:35:04;;;;;;;37.88;9.52;;;7.50;99.90;;;;;;5069615;28;20132;-46
2020/12/10 03:37:30;;;;;;;40.22;9.25;;;7.50;99.90;;;;;;5069477;28;20035;-48
2020/12/10 03:39:55;;;;;;;33.70;10.38;;;7.50;99.90;;;;;;5071861;28;20107;-47
2020/12/10 03:42:21;;;;;;;30.33;8.98;;;7.50;99.90;;;;;;5069242;28;20028;-47
2020/12/10 03:44:47;;;;;;;40.05;10.63;;;7.50;99.90;;;;;;5080210;28;20035;-46
2020/12/10 03:47:13;;;;;;;28.75;10.40;;;7.50;99.90;;;;;;5082904;28;20504;-47
2020/12/10 03:49:38;;;;;;;38.67;10.55;;;7.50;99.90;;;;;;5067393;28;20367;-45
2020/12/10 03:52:04;;;;;;;38.03;11.20;;;7.40;99.90;;;;;;5068981;28;20043;-46
2020/12/10 03:54:31;;;;;;;34.80;10.13;;;7.40;99.90;;;;;;5053240;28;20032;-48
2020/12/10 03:56:56;;;;;;;31.95;9.93;;;7.50;99.90;;;;;;5077827;28;20040;-47
2020/12/10 03:59:22;;;;;;;33.05;9.02;;;7.50;99.90;;;;;;5068387;28;20078;-46
2020/12/10 04:01:48;;;;;;;34.20;9.88;;;7.50;99.90;;;;;;5070694;28;20031;-47
2020/12/10 04:04:13;;;;;;;38.63;10.60;;;7.50;99.90;;;;;;5077442;28;20024;-46
2020/12/10 04:06:43;;;;;;;37.45;9.13;;;7.50;99.90;;;;;;5081684;28;20047;-47
2020/12/10 04:09:12;;;;;;;37.58;9.98;;;7.50;99.90;;;;;;5080065;28;20056;-47
2020/12/10 04:11:38;;;;;;;31.48;8.90;;;7.50;99.90;;;;;;5073430;28;20107;-48
2020/12/10 04:14:04;;;;;;;37.67;10.55;;;7.60;99.90;;;;;;5068287;28;20111;-47
2020/12/10 04:16:29;;;;;;;34.72;10.32;;;7.50;99.90;;;;;;5068123;28;20470;-46
2020/12/10 04:18:55;;;;;;;39.63;10.38;;;7.60;99.90;;;;;;5068346;28;20029;-47
2020/12/10 04:21:20;;;;;;;46.85;11.30;;;7.50;99.90;;;;;;5067908;28;20111;-45
2020/12/10 04:23:46;;;;;;;38.67;9.60;;;7.50;99.90;;;;;;5069282;28;20025;-46
2020/12/10 04:26:14;;;;;;;41.33;10.40;;;7.50;99.90;;;;;;5080279;28;20048;-46
2020/12/10 04:28:41;;;;;;;34.15;9.77;;;7.50;99.90;;;;;;5078703;28;20405;-46
2020/12/10 04:31:07;;;;;;;42.67;10.40;;;7.50;99.90;;;;;;5068932;28;20082;-46
2020/12/10 04:33:32;;;;;;;35.05;10.55;;;7.50;99.90;;;;;;5068305;28;20386;-47
2020/12/10 04:35:58;;;;;;;33.25;9.77;;;7.60;99.90;;;;;;5068438;28;20044;-46
2020/12/10 04:38:24;;;;;;;26.85;8.70;;;7.60;99.90;;;;;;5068506;28;20401;-46
2020/12/10 04:40:50;;;;;;;29.77;8.25;;;7.60;99.90;;;;;;5068864;28;20029;-47
2020/12/10 04:43:16;;;;;;;35.28;9.63;;;7.60;99.90;;;;;;5068188;28;20040;-48
2020/12/10 04:45:42;;;;;;;32.88;8.27;;;7.60;99.90;;;;;;5068337;28;20057;-46
2020/12/10 04:48:08;;;;;;;30.42;9.45;;;7.60;99.90;;;;;;5068595;28;20063;-46
2020/12/10 04:50:37;;;;;;;41.80;9.95;;;7.60;99.90;;;;;;5078263;28;20537;-46
2020/12/10 04:53:04;;;;;;;36.55;9.63;;;7.60;99.90;;;;;;5079393;28;20028;-47
2020/12/10 04:55:30;;;;;;;47.75;10.77;;;7.60;99.90;;;;;;5083802;28;20036;-46
2020/12/10 04:57:59;;;;;;;40.03;9.32;;;7.60;99.90;;;;;;5080146;28;20050;-46
2020/12/10 05:00:25;;;;;;;37.72;10.73;;;7.70;99.90;;;;;;5072111;28;20425;-46
2020/12/10 05:02:51;;;;;;;34.55;8.88;;;7.60;99.90;;;;;;5071887;28;20454;-47
2020/12/10 05:05:30;;;;;;;32.67;10.60;;;7.60;99.90;;;;;;5071354;28;20078;-46
2020/12/10 05:08:02;;;;;;;39.03;10.50;;;7.60;99.90;;;;;;5071407;28;20098;-47
2020/12/10 05:10:40;;;;;;;30.83;9.55;;;7.60;99.90;;;;;;5071797;28;20466;-46
2020/12/10 05:13:08;;;;;;;28.38;9.90;;;7.60;99.90;;;;;;5054562;28;20956;-44
2020/12/10 05:15:36;;;;;;;29.77;9.75;;;7.60;99.90;;;;;;5082036;28;20064;-45
2020/12/10 05:18:09;;;;;;;40.28;9.80;;;7.60;99.90;;;;;;5071634;28;20100;-47
2020/12/10 05:20:56;;;;;;;42.15;10.32;;;7.60;99.90;;;;;;5073612;28;20729;-47
2020/12/10 05:23:33;;;;;;;32.75;11.48;;;7.60;99.90;;;;;;5071471;28;20138;-47
2020/12/10 05:26:04;;;;;;;49.83;11.27;;;7.60;99.90;;;;;;5071580;28;20060;-48
2020/12/10 05:28:51;;;;;;;43.00;13.27;;;7.60;99.90;;;;;;5054104;28;20040;-47
2020/12/10 05:31:19;;;;;;;42.00;11.35;;;7.70;99.90;;;;;;5053510;28;20036;-47
2020/12/10 05:34:03;;;;;;;35.00;11.20;;;7.70;99.90;;;;;;5071595;28;20035;-47
2020/12/10 05:36:33;;;;;;;36.70;11.13;;;7.70;99.90;;;;;;5071022;28;20039;-47
2020/12/10 05:39:11;;;;;;;36.30;10.45;;;7.70;99.90;;;;;;5071283;28;20040;-48
2020/12/10 05:41:45;;;;;;;36.80;10.65;;;7.60;99.90;;;;;;5053379;28;20133;-47
2020/12/10 05:44:19;;;;;;;45.83;9.95;;;7.70;99.90;;;;;;5071426;28;20119;-46
2020/12/10 05:46:51;;;;;;;38.28;10.23;;;7.70;99.90;;;;;;5073575;28;20044;-47
2020/12/10 05:49:17;;;;;;;49.72;11.68;;;7.70;99.90;;;;;;5073136;28;20029;-48
2020/12/10 05:51:48;;;;;;;35.72;10.25;;;7.70;99.90;;;;;;5070428;28;20029;-47
2020/12/10 05:54:19;;;;;;;45.97;10.77;;;7.70;99.90;;;;;;5071508;28;20046;-47
2020/12/10 05:56:57;;;;;;;50.15;9.68;;;7.70;99.90;;;;;;5070346;28;20048;-45
2020/12/10 05:59:24;;;;;;;46.65;10.15;;;7.70;99.90;;;;;;5070014;28;20414;-48
2020/12/10 06:01:50;;;;;;;52.75;11.02;;;7.80;99.90;;;;;;5067669;28;20086;-46
2020/12/10 06:04:17;;;;;;;37.75;9.20;;;7.70;99.90;;;;;;5085465;28;20032;-46
2020/12/10 06:06:46;;;;;;;30.45;9.45;;;7.70;99.90;;;;;;5087290;28;20047;-47
2020/12/10 06:09:15;;;;;;;38.85;9.40;;;7.70;99.90;;;;;;5069276;28;20032;-44
2020/12/10 06:11:40;;;;;;;39.10;11.32;;;7.80;99.90;;;;;;5068687;28;20116;-46
2020/12/10 06:14:07;;;;;;;43.53;11.45;;;7.80;99.90;;;;;;5073000;28;20043;-44
2020/12/10 06:16:35;;;;;;;48.03;9.45;;;7.70;99.90;;;;;;5069180;28;20048;-47
2020/12/10 06:19:05;;;;;;;44.80;9.20;;;7.70;99.90;;;;;;5079284;28;20038;-45
2020/12/10 06:21:43;;;;;;;50.20;9.75;;;7.70;99.90;;;;;;5085318;28;20087;-46
2020/12/10 06:24:24;;;;;;;40.85;9.27;;;7.80;99.90;;;;;;5068852;28;20717;-46
2020/12/10 06:26:54;;;;;;;33.13;8.98;;;7.80;99.90;;;;;;5068703;28;20552;-46
2020/12/10 06:29:30;;;;;;;27.85;8.02;;;7.80;99.90;;;;;;5068474;28;20036;-46
2020/12/10 06:32:17;;;;;;;31.08;8.27;;;7.80;99.90;;;;;;5068415;28;20068;-47
2020/12/10 06:34:51;;;;;;;32.72;7.97;;;7.80;99.90;;;;;;5069148;28;20044;-44
2020/12/10 06:37:27;;;;;;;38.17;9.90;;;7.80;99.90;;;;;;5068720;28;20071;-47
2020/12/10 06:40:04;;;;;;;43.15;8.35;;;7.70;99.90;;;;;;5068441;28;20090;-47
2020/12/10 06:42:49;;;;;;;40.63;9.30;;;7.70;99.90;;;;;;5049596;28;20423;-44
2020/12/10 06:45:32;;;;;;;28.13;7.32;;;7.70;99.90;;;;;;5072285;28;20585;-47
2020/12/10 06:47:59;;;;;;;40.58;10.60;;;7.80;99.90;;;;;;5053683;28;20536;-47
2020/12/10 06:50:31;;;;;;;34.58;8.38;;;7.80;99.90;;;;;;5072456;28;20039;-45
2020/12/10 06:53:21;;;;;;;43.22;9.10;;;7.80;99.90;;;;;;5076639;28;20067;-46
2020/12/10 06:55:59;;;;;;;52.85;8.60;;;7.80;99.90;;;;;;5083205;28;20044;-45
2020/12/10 06:58:41;;;;;;;45.65;10.13;;;7.70;99.90;;;;;;5068216;28;20045;-45
2020/12/10 07:01:25;;;;;;;38.10;8.68;;;7.80;99.90;;;;;;5067832;28;20039;-45
2020/12/10 07:07:12;;;;;;;25.02;7.88;;;7.80;99.90;;;;;;5067737;28;20566;-46
2020/12/10 07:09:59;;;;;;;40.65;7.85;;;7.80;99.90;;;;;;5067281;28;20028;-46
2020/12/10 07:12:33;;;;;;;31.20;7.90;;;7.80;99.90;;;;;;5070697;28;20048;-46
2020/12/10 07:15:35;;;;;;;28.75;6.85;;;7.80;99.90;;;;;;5075011;28;20047;-47
2020/12/10 07:18:07;;;;;;;32.50;9.40;;;7.80;99.90;;;;;;4975310;28;20123;-46
2020/12/10 07:20:34;;;;;;;27.05;7.85;;;7.80;99.90;;;;;;5067702;28;20118;-45
2020/12/10 07:23:01;;;;;;;28.52;7.57;;;7.80;99.90;;;;;;5075973;28;20028;-45
2020/12/10 07:25:28;;;;;;;42.58;7.80;;;7.80;99.90;;;;;;5071361;28;20124;-45
2020/12/10 07:27:55;;;;;;;36.13;8.27;;;7.80;99.90;;;;;;5083544;28;20468;-44
2020/12/10 07:30:23;;;;;;;26.95;8.10;;;7.80;99.90;;;;;;5083019;28;20040;-46
2020/12/10 07:32:52;;;;;;;36.58;8.68;;;7.90;99.90;;;;;;5074673;28;20972;-46
2020/12/10 07:35:30;;;;;;;42.05;7.85;;;7.90;99.90;;;;;;5077077;28;20114;-45
2020/12/10 07:37:55;;;;;;;34.83;9.07;;;7.80;99.90;;;;;;5077811;28;20046;-45
2020/12/10 07:40:23;;;;;;;46.55;8.32;;;7.80;99.90;;;;;;5053683;28;20045;-45
2020/12/10 07:42:49;;;;;;;30.02;6.97;;;7.80;99.90;;;;;;5079428;28;20389;-44
2020/12/10 07:45:19;;;;;;;33.67;7.88;;;7.80;99.90;;;;;;5069325;28;20058;-45
2020/12/10 07:47:56;;;;;;;38.70;7.65;;;7.80;99.90;;;;;;5068656;28;20048;-46
2020/12/10 07:50:25;;;;;;;24.27;7.82;;;7.80;99.90;;;;;;5075849;28;20035;-45
2020/12/10 07:52:53;;;;;;;26.83;7.82;;;7.80;99.90;;;;;;5075351;28;20036;-44
2020/12/10 07:55:28;;;;;;;32.60;8.65;;;7.80;99.90;;;;;;5044599;28;20040;-45
2020/12/10 07:58:07;;;;;;;36.83;7.97;;;7.80;99.90;;;;;;5066340;28;20024;-45
2020/12/10 08:00:35;;;;;;;38.40;7.18;;;7.80;99.90;;;;;;5066919;28;20033;-47
2020/12/10 08:03:09;;;;;;;40.15;8.13;;;7.80;99.90;;;;;;5066157;28;20100;-47
2020/12/10 08:05:36;;;;;;;31.73;7.47;;;7.80;99.90;;;;;;5048575;28;20048;-46
2020/12/10 08:08:02;;;;;;;28.00;7.03;;;7.80;99.90;;;;;;5084345;28;20059;-45
2020/12/10 08:10:31;;;;;;;35.78;8.45;;;7.80;99.90;;;;;;5085453;28;20032;-46
2020/12/10 08:13:17;;;;;;;28.13;7.40;;;7.80;99.90;;;;;;5078359;28;20020;-45
2020/12/10 08:15:47;;;;;;;34.67;8.32;;;7.80;99.90;;;;;;5086148;28;20028;-46
2020/12/10 08:18:19;;;;;;;30.60;7.95;;;7.80;99.90;;;;;;5091211;28;20036;-45
2020/12/10 08:20:47;;;;;;;29.45;7.20;;;7.80;99.90;;;;;;5086011;28;20135;-44
2020/12/10 08:23:14;;;;;;;31.98;7.97;;;7.70;99.90;;;;;;5075942;28;20482;-45
2020/12/10 08:25:42;;;;;;;31.67;7.80;;;7.70;99.90;;;;;;5066253;28;20485;-44
2020/12/10 08:28:09;;;;;;;30.95;7.38;;;7.70;99.90;;;;;;5078314;28;20521;-46
2020/12/10 08:30:36;;;;;;;39.97;8.85;;;7.70;99.90;;;;;;5075072;28;20131;-45
2020/12/10 08:33:04;;;;;;;22.27;6.20;;;7.80;99.90;;;;;;5076295;28;20028;-44
2020/12/10 08:35:44;;;;;;;29.35;6.35;;;7.70;99.90;;;;;;5052567;28;20067;-44
2020/12/10 08:38:10;;;;;;;26.90;6.75;;;7.70;99.90;;;;;;5078951;28;20496;-45
2020/12/10 08:40:37;;;;;;;30.27;6.10;;;7.80;99.90;;;;;;5070618;28;20111;-45
2020/12/10 08:43:10;;;;;;;24.10;7.15;;;7.80;99.90;;;;;;5070127;28;20024;-46
2020/12/10 08:45:44;;;;;;;29.52;7.53;;;7.80;99.90;;;;;;5079872;28;20956;-45
2020/12/10 08:48:11;;;;;;;30.48;7.50;;;7.90;99.90;;;;;;5080486;28;20032;-45
2020/12/10 08:50:57;;;;;;;33.20;8.63;;;7.90;99.90;;;;;;5069662;28;20036;-45
2020/12/10 08:53:24;;;;;;;32.95;8.20;;;7.90;99.90;;;;;;5069909;28;20051;-45
2020/12/10 08:55:53;;;;;;;35.97;8.48;;;8.00;99.90;;;;;;5071555;28;20474;-44
2020/12/10 08:58:25;;;;;;;24.50;7.50;;;8.00;99.90;;;;;;5079841;28;20036;-45
2020/12/10 09:00:52;;;;;;;29.20;7.53;;;8.00;99.90;;;;;;5074921;28;20049;-45
2020/12/10 09:03:18;;;;;;;28.40;7.07;;;8.00;99.90;;;;;;5078498;28;20032;-45
2020/12/10 09:05:45;;;;;;;30.33;7.72;;;8.00;99.90;;;;;;5075074;28;20081;-46
2020/12/10 09:08:12;;;;;;;30.15;7.53;;;8.00;99.90;;;;;;5058032;28;20028;-45
2020/12/10 09:10:39;;;;;;;38.67;7.50;;;8.00;99.90;;;;;;5088916;28;20167;-47
2020/12/10 09:13:05;;;;;;;40.08;7.50;;;8.00;99.90;;;;;;5087666;28;20568;-44
2020/12/10 09:15:37;;;;;;;23.40;7.95;;;8.10;99.90;;;;;;5072759;28;20132;-45
2020/12/10 09:18:04;;;;;;;18.63;6.67;;;8.10;99.90;;;;;;5070302;28;20025;-45
2020/12/10 09:20:30;;;;;;;29.10;6.88;;;8.10;99.90;;;;;;5052471;28;20719;-45
2020/12/10 09:22:55;;;;;;;33.08;7.25;;;8.10;99.90;;;;;;5070458;28;20049;-45
2020/12/10 09:25:21;;;;;;;24.50;6.10;;;8.10;99.90;;;;;;5070112;28;20809;-44
2020/12/10 09:27:48;;;;;;;23.73;6.55;;;8.10;99.90;;;;;;5070517;28;20056;-44
2020/12/10 09:30:34;;;;;;;26.42;6.55;;;8.20;99.90;;;;;;5050586;28;20032;-44
2020/12/10 09:33:00;;;;;;;29.20;6.50;;;8.20;99.90;;;;;;5077835;28;20036;-44
2020/12/10 09:35:26;;;;;;;21.58;6.78;;;8.10;99.90;;;;;;5090872;28;20446;-44
2020/12/10 09:37:52;;;;;;;33.20;7.25;;;8.10;99.90;;;;;;5090116;28;20051;-45
2020/12/10 09:40:18;;;;;;;28.90;5.60;;;8.20;99.90;;;;;;5055602;28;20072;-45
2020/12/10 09:42:47;;;;;;;31.95;6.90;;;8.20;99.90;;;;;;5090854;28;20064;-45
2020/12/10 09:45:14;;;;;;;25.25;6.18;;;8.20;99.90;;;;;;5070042;28;20094;-45
2020/12/10 09:47:41;;;;;;;24.08;5.63;;;8.30;99.90;;;;;;5052113;28;20051;-44
2020/12/10 09:50:17;;;;;;;24.17;5.65;;;8.30;99.90;;;;;;5052188;28;20155;-45
2020/12/10 09:52:49;;;;;;;26.05;6.97;;;8.30;99.90;;;;;;5069698;28;20028;-44
2020/12/10 09:56:10;;;;;;;21.23;6.40;;;8.30;99.90;;;;;;5069471;28;20021;-44
2020/12/10 09:58:04;;;;;;;32.58;5.15;;;8.20;99.90;;;;;;5060960;28;20045;-45
2020/12/10 10:00:29;;;;;;;20.85;5.57;;;8.20;99.90;;;;;;5069681;28;20035;-45
2020/12/10 10:02:55;;;;;;;30.50;5.70;;;8.20;99.90;;;;;;5070055;28;20094;-45
2020/12/10 10:05:24;;;;;;;25.73;5.38;;;8.30;99.90;;;;;;5051986;28;20043;-45
2020/12/10 10:07:53;;;;;;;18.38;5.25;;;8.30;99.90;;;;;;5069277;28;20044;-46
2020/12/10 10:10:22;;;;;;;24.40;5.30;;;8.20;99.90;;;;;;5051493;28;20442;-44
2020/12/10 10:12:55;;;;;;;25.90;5.35;;;8.20;99.90;;;;;;5069157;28;20083;-45
2020/12/10 10:15:24;;;;;;;15.32;5.32;;;8.20;99.90;;;;;;5062416;28;20071;-45
2020/12/10 10:17:50;;;;;;;24.30;6.15;;;8.30;99.90;;;;;;5067860;28;20097;-45
2020/12/10 10:20:16;;;;;;;26.83;6.22;;;8.30;99.90;;;;;;5068301;28;20454;-46
2020/12/10 10:22:42;;;;;;;33.50;7.72;;;8.20;99.90;;;;;;5069538;28;20143;-44
2020/12/10 10:25:08;;;;;;;25.25;6.20;;;8.30;99.90;;;;;;5069266;28;20071;-45
2020/12/10 10:27:36;;;;;;;30.33;5.72;;;8.30;99.90;;;;;;5069236;28;20058;-45
2020/12/10 10:30:11;;;;;;;32.83;6.45;;;8.30;99.90;;;;;;5069245;28;20024;-45
2020/12/10 10:32:37;;;;;;;31.52;6.38;;;8.30;99.90;;;;;;5072572;28;20101;-44
2020/12/10 10:35:03;;;;;;;22.58;6.25;;;8.30;99.90;;;;;;5070264;28;20604;-45
2020/12/10 10:37:50;;;;;;;25.15;6.13;;;8.40;99.90;;;;;;5088568;28;20794;-45
2020/12/10 10:40:40;;;;;;;24.33;5.43;;;8.40;99.90;;;;;;5088083;28;20074;-46
2020/12/10 10:43:26;;;;;;;21.80;6.10;;;8.40;99.90;;;;;;5087704;28;20319;-45
2020/12/10 10:45:55;;;;;;;16.80;5.05;;;8.50;99.90;;;;;;5070682;28;20514;-45
2020/12/10 10:48:21;;;;;;;25.00;5.15;;;8.50;99.90;;;;;;5068066;28;20075;-45
2020/12/10 10:50:47;;;;;;;30.70;6.07;;;8.40;99.90;;;;;;5067752;28;20081;-45
2020/12/10 10:53:16;;;;;;;50.38;7.35;;;8.50;99.90;;;;;;5050388;28;20047;-47
2020/12/10 10:56:01;;;;;;;17.38;5.80;;;8.40;99.90;;;;;;5068303;28;20451;-45
2020/12/10 10:58:27;;;;;;;30.73;7.38;;;8.50;99.90;;;;;;5068080;28;20086;-45
2020/12/10 11:00:52;;;;;;;34.38;6.13;;;8.50;99.90;;;;;;5067634;28;20033;-44
2020/12/10 11:03:19;;;;;;;33.85;7.57;;;8.50;99.90;;;;;;5067794;28;20071;-45
2020/12/10 11:05:55;;;;;;;25.98;5.95;;;8.50;99.90;;;;;;5068580;28;20056;-46
2020/12/10 11:08:43;;;;;;;25.08;6.95;;;8.50;99.90;;;;;;5067667;28;20040;-46
2020/12/10 11:11:09;;;;;;;44.58;11.57;;;8.50;99.90;;;;;;5067499;28;20046;-45
2020/12/10 11:13:57;;;;;;;50.30;15.77;;;8.50;99.90;;;;;;5068066;28;20029;-45
2020/12/10 11:16:23;;;;;;;148.35;41.00;;;8.60;99.90;;;;;;5068262;28;20139;-45
2020/12/10 11:18:49;;;;;;;51.63;15.35;;;8.60;99.90;;;;;;5067818;28;20184;-45
2020/12/10 11:21:15;;;;;;;89.15;22.30;;;8.70;99.90;;;;;;5067732;28;20118;-45
2020/12/10 11:23:42;;;;;;;33.83;9.32;;;8.70;99.90;;;;;;5070327;28;20067;-45
2020/12/10 11:26:08;;;;;;;36.67;7.20;;;8.70;99.90;;;;;;5067692;28;20064;-45
2020/12/10 11:28:33;;;;;;;24.25;5.80;;;8.80;99.90;;;;;;5067546;28;20066;-45
2020/12/10 11:31:03;;;;;;;38.15;9.38;;;8.90;99.90;;;;;;5067597;28;20443;-45
2020/12/10 11:33:40;;;;;;;39.30;7.40;;;8.90;99.90;;;;;;5067299;28;20037;-45
2020/12/10 11:36:06;;;;;;;35.90;7.32;;;8.80;99.90;;;;;;5067257;28;20040;-46
2020/12/10 11:38:31;;;;;;;40.28;5.85;;;8.80;99.90;;;;;;5069933;28;20373;-46
2020/12/10 11:40:58;;;;;;;38.10;7.88;;;8.80;99.90;;;;;;5067892;28;20108;-46
2020/12/10 11:43:24;;;;;;;23.90;6.13;;;8.80;99.90;;;;;;5067207;28;20132;-45
2020/12/10 11:45:53;;;;;;;31.02;5.65;;;8.80;99.90;;;;;;5067732;28;20113;-46
2020/12/10 11:48:20;;;;;;;35.35;7.53;;;8.70;99.90;;;;;;5067772;28;20127;-47
2020/12/10 11:51:02;;;;;;;25.63;5.68;;;8.80;99.90;;;;;;5067966;28;20029;-47
2020/12/10 11:53:33;;;;;;;22.90;5.85;;;8.80;99.90;;;;;;5048030;28;20155;-47
2020/12/10 11:56:00;;;;;;;30.58;6.32;;;8.80;99.90;;;;;;5067927;28;20423;-45
2020/12/10 11:58:26;;;;;;;21.75;5.90;;;8.80;99.90;;;;;;5067937;28;20037;-45
2020/12/10 12:01:14;;;;;;;26.92;6.78;;;8.80;99.90;;;;;;5066374;28;20059;-45
2020/12/10 12:03:40;;;;;;;22.02;5.28;;;8.70;99.90;;;;;;5069308;28;20455;-46
2020/12/10 12:06:06;;;;;;;34.53;7.28;;;8.70;99.90;;;;;;5067081;28;20028;-45
2020/12/10 12:08:35;;;;;;;25.17;5.47;;;8.70;99.90;;;;;;5066757;28;20036;-46
2020/12/10 12:11:02;;;;;;;24.65;5.72;;;8.80;99.90;;;;;;5066781;28;20544;-45
2020/12/10 12:13:31;;;;;;;30.10;5.13;;;8.70;99.90;;;;;;5066669;28;20021;-46
2020/12/10 12:16:07;;;;;;;26.30;4.82;;;8.70;99.90;;;;;;5067042;28;20112;-46
2020/12/10 12:18:34;;;;;;;20.33;4.68;;;8.80;99.90;;;;;;5088267;28;20042;-45
2020/12/10 12:20:59;;;;;;;20.75;5.22;;;8.80;99.90;;;;;;5083115;28;20434;-47
2020/12/10 12:23:25;;;;;;;21.52;6.10;;;8.90;99.90;;;;;;5068224;28;20048;-46
2020/12/10 12:25:51;;;;;;;33.42;5.85;;;8.80;99.90;;;;;;5086847;28;20032;-46
2020/12/10 12:28:16;;;;;;;25.38;5.45;;;8.80;99.90;;;;;;5057342;28;20048;-48
2020/12/10 12:30:45;;;;;;;17.38;5.32;;;8.80;99.90;;;;;;5071372;28;20074;-46
2020/12/10 12:33:11;;;;;;;48.00;6.90;;;8.70;99.90;;;;;;5066517;28;20052;-46
2020/12/10 12:35:36;;;;;;;26.67;5.82;;;8.80;99.90;;;;;;5066960;28;20389;-46
2020/12/10 12:38:03;;;;;;;35.90;5.80;;;8.90;99.90;;;;;;5066497;28;20069;-46
2020/12/10 12:40:29;;;;;;;33.97;6.95;;;8.80;99.90;;;;;;5066458;28;20032;-46
2020/12/10 12:42:57;;;;;;;27.83;5.90;;;8.80;99.90;;;;;;5048517;28;20447;-46
2020/12/10 12:45:24;;;;;;;31.45;5.85;;;8.80;99.90;;;;;;5055518;28;20040;-46
2020/12/10 12:47:49;;;;;;;19.55;4.75;;;8.90;99.90;;;;;;5066281;28;20437;-47
2020/12/10 12:50:15;;;;;;;29.23;6.13;;;9.00;99.90;;;;;;5066076;28;20064;-46
2020/12/10 12:52:43;;;;;;;33.13;4.60;;;9.00;99.90;;;;;;5066058;28;20041;-45
2020/12/10 12:55:12;;;;;;;21.98;5.72;;;9.00;99.90;;;;;;5066883;28;20028;-46
2020/12/10 12:57:58;;;;;;;34.00;5.93;;;8.90;99.90;;;;;;5084212;28;20055;-45